Mexico V — XCKR — position and weather

sailwx.info

Track history (hours):
 
Tides and Currents Weather Stations Pressure Air Temp Water Temp Dewpoint Dewpoint Depression Visibility Wind Speed Wind Dir Waves Ship Positions

Mexico V

Last reported at 2017-Jun-24 01:48 UTC. Time now 2017-Jun-24 03:38 UTC.
Position N 20°31' W 086°57'.

Length 40 m; draft 1.5 m.

Type: Ship. MMSI: 345110005.

Date/timePositionNaut miles runAvg speedWind from/ knotsBaromVisibWave heightAir tempDewpointWater temp
2017-Jun-24 01:48N 20°31' W 086°57'311.2
2017-Jun-24 01:30N 20°33' W 086°60'1 0.6
2017-Jun-24 00:16N 20°32' W 086°59'2 9.2
2017-Jun-24 00:00N 20°31' W 086°57'3 1.8
2017-Jun-23 22:20N 20°33' W 086°59'3 9.1
2017-Jun-23 22:00N 20°31' W 086°57'0 0.8
2017-Jun-23 21:31N 20°31' W 086°57'0 0.0
2017-Jun-23 21:00N 20°31' W 086°57'0 0.0
2017-Jun-23 20:30N 20°31' W 086°57'0 0.7
2017-Jun-23 20:00N 20°31' W 086°57'4 8.4
2017-Jun-23 19:30N 20°34' W 087°00'2 1.4
2017-Jun-23 18:16N 20°33' W 086°59'3 9.8
2017-Jun-23 18:00N 20°31' W 086°57'0 0.0
2017-Jun-23 17:30N 20°31' W 086°57'0 0.1
2017-Jun-23 17:00N 20°31' W 086°57'2 1.1
2017-Jun-23 15:13N 20°32' W 086°59'2 9.8
2017-Jun-23 15:00N 20°31' W 086°57'0 0.0
2017-Jun-23 14:00N 20°31' W 086°57'0 0.1
2017-Jun-23 13:30N 20°31' W 086°57'0 0.1
2017-Jun-23 13:00N 20°31' W 086°57'0 0.1
2017-Jun-23 12:30N 20°31' W 086°57'0 0.0
2017-Jun-23 02:27N 20°31' W 086°57'0 0.1
2017-Jun-23 02:00N 20°31' W 086°57'2 4.7
2017-Jun-23 01:30N 20°32' W 086°59'0 0.3
2017-Jun-23 00:20N 20°33' W 086°59'3 8.2
2017-Jun-23 00:01N 20°31' W 086°57'3 6.2
2017-Jun-22 23:30N 20°33' W 086°60'1 0.7
2017-Jun-22 22:16N 20°32' W 086°59'2 9.1
2017-Jun-22 22:01N 20°31' W 086°57'0 0.0
2017-Jun-22 21:30N 20°31' W 086°57'2 3.9
2017-Jun-22 21:00N 20°29' W 086°59'3 1.1
2017-Jun-22 18:16N 20°33' W 086°59'2 9.1
2017-Jun-22 18:00N 20°31' W 086°57'2 1.3
2017-Jun-22 16:18N 20°32' W 086°59'2 7.6
2017-Jun-22 16:00N 20°31' W 086°57'2 0.7
2017-Jun-22 13:06N 20°30' W 086°59'113.8
2017-Jun-22 13:00N 20°29' W 086°58'0 0.2
2017-Jun-22 12:30N 20°29' W 086°58'0 0.7
2017-Jun-22 12:00N 20°29' W 086°58'2 4.3
2017-Jun-22 11:30N 20°31' W 086°57'0 0.0
2017-Jun-22 01:39N 20°31' W 086°57'213.6
2017-Jun-22 01:30N 20°32' W 086°58'1 0.4
2017-Jun-22 00:14N 20°33' W 086°59'210.0
2017-Jun-22 00:00N 20°31' W 086°57'2 4.2
2017-Jun-21 23:30N 20°32' W 086°59'1 1.0
2017-Jun-21 22:18N 20°33' W 086°59'311.5
2017-Jun-21 22:00N 20°31' W 086°57'0 0.0
2017-Jun-21 21:30N 20°31' W 086°57'0 0.0
2017-Jun-21 21:00N 20°31' W 086°57'3 6.7
2017-Jun-21 20:30N 20°33' W 086°59'1 1.0
2017-Jun-21 19:15N 20°32' W 086°59'2 9.3
2017-Jun-21 19:00N 20°31' W 086°57'4 7.3
2017-Jun-21 18:30N 20°33' W 086°60'1 0.5
2017-Jun-21 17:21N 20°33' W 086°59'3 9.3
2017-Jun-21 17:00N 20°31' W 086°57'0 0.0
2017-Jun-21 16:30N 20°31' W 086°57'0 0.5
2017-Jun-21 16:00N 20°31' W 086°57'3 5.8
2017-Jun-21 15:30N 20°33' W 086°59'0 0.4
2017-Jun-21 14:17N 20°34' W 086°59'4 4.7
2017-Jun-21 13:30N 20°31' W 086°57'0 0.1
2017-Jun-21 13:00N 20°31' W 086°57'0 0.0
2017-Jun-21 12:30N 20°31' W 086°57'0 0.0
2017-Jun-21 12:00N 20°31' W 086°57'0 0.0
2017-Jun-21 01:42N 20°31' W 086°57'313.5
2017-Jun-21 01:30N 20°33' W 086°59'0 0.3
2017-Jun-21 00:16N 20°33' W 086°59'311.7
2017-Jun-21 00:00N 20°31' W 086°57'4 7.2
2017-Jun-20 23:30N 20°33' W 086°60'1 0.9
2017-Jun-20 22:16N 20°33' W 086°59'2 9.6
2017-Jun-20 22:00N 20°31' W 086°57'3 6.2
2017-Jun-20 21:30N 20°33' W 086°60'1 0.6
2017-Jun-20 20:14N 20°33' W 086°59'210.7
2017-Jun-20 20:00N 20°31' W 086°57'2 1.0
2017-Jun-20 18:14N 20°32' W 086°58'2 8.0
2017-Jun-20 18:00N 20°31' W 086°57'2 1.0
2017-Jun-20 16:10N 20°32' W 086°58'211.9
2017-Jun-20 16:00N 20°31' W 086°57'3 6.8
2017-Jun-20 15:30N 20°33' W 086°60'1 0.7
2017-Jun-20 14:15N 20°33' W 086°59'3 0.2
2017-Jun-20 02:44N 20°31' W 086°57'314.8
2017-Jun-20 02:30N 20°33' W 086°59'1 1.0
2017-Jun-20 01:15N 20°32' W 086°58'2 8.7
2017-Jun-20 01:00N 20°31' W 086°57'0 0.1
2017-Jun-20 00:30N 20°31' W 086°57'0 0.0
2017-Jun-20 00:00N 20°31' W 086°57'2 4.9
2017-Jun-19 23:30N 20°33' W 086°59'0 0.2
2017-Jun-19 22:16N 20°33' W 086°59'310.4
2017-Jun-19 22:01N 20°31' W 086°57'0 0.0
2017-Jun-19 21:31N 20°31' W 086°57'0 0.0
2017-Jun-19 21:01N 20°31' W 086°57'2 4.7
2017-Jun-19 20:30N 20°32' W 086°59'0 0.4
2017-Jun-19 19:14N 20°32' W 086°58'2 8.5
2017-Jun-19 19:00N 20°31' W 086°57'0 0.1
2017-Jun-19 18:30N 20°31' W 086°57'0 0.0
2017-Jun-19 18:00N 20°31' W 086°57'3 2.0
2017-Jun-19 16:17N 20°33' W 086°59'311.9
2017-Jun-19 16:01N 20°31' W 086°57'0 0.1
2017-Jun-19 15:31N 20°31' W 086°57'0 0.7
2017-Jun-19 15:00N 20°31' W 086°57'3 5.3
2017-Jun-19 14:30N 20°33' W 086°59'1 0.5
2017-Jun-19 13:20N 20°33' W 086°59'310.2
2017-Jun-19 13:01N 20°31' W 086°57'0 0.0
2017-Jun-19 12:30N 20°31' W 086°57'0 0.0
2017-Jun-19 12:01N 20°31' W 086°57'0 0.0
2017-Jun-19 02:43N 20°31' W 086°57'312.9
2017-Jun-19 02:31N 20°33' W 086°59'1 0.5
2017-Jun-19 01:22N 20°33' W 086°59'3 7.3
2017-Jun-19 00:56N 20°31' W 086°57'0 0.1
2017-Jun-19 00:30N 20°31' W 086°57'0 0.0
2017-Jun-19 00:00N 20°31' W 086°57'0 0.0
2017-Jun-18 23:30N 20°31' W 086°57'0 0.0
2017-Jun-18 23:00N 20°31' W 086°57'3 5.8
2017-Jun-18 22:30N 20°33' W 086°59'0 0.3
2017-Jun-18 21:19N 20°33' W 086°59'3 8.7
2017-Jun-18 21:00N 20°31' W 086°57'0 0.0
2017-Jun-18 20:30N 20°31' W 086°57'0 0.0
2017-Jun-18 20:00N 20°31' W 086°57'2 1.3
2017-Jun-18 18:15N 20°32' W 086°59'2 3.7
2017-Jun-18 17:39N 20°31' W 086°57'0 0.2
2017-Jun-18 17:30N 20°31' W 086°57'0 0.0
2017-Jun-18 17:00N 20°31' W 086°57'2 1.2
2017-Jun-18 15:17N 20°32' W 086°59'2 2.9
2017-Jun-18 14:34N 20°31' W 086°57'0 0.1
2017-Jun-18 14:00N 20°31' W 086°57'0 0.0
2017-Jun-18 13:29N 20°31' W 086°57'0 0.0
2017-Jun-18 13:00N 20°31' W 086°57'0 0.0
2017-Jun-18 12:30N 20°31' W 086°57'0 0.0
2017-Jun-18 12:00N 20°31' W 086°57'0 0.0
2017-Jun-18 02:25N 20°31' W 086°57'0 0.1
2017-Jun-18 01:46N 20°31' W 086°57'1 1.0
2017-Jun-18 00:16N 20°32' W 086°58'1 1.4
2017-Jun-17 23:12N 20°31' W 086°57'0 0.5
2017-Jun-17 22:58N 20°31' W 086°57'1 0.7
2017-Jun-17 21:12N 20°32' W 086°58'1 3.2
2017-Jun-17 20:46N 20°31' W 086°57'0 0.0
2017-Jun-17 20:30N 20°31' W 086°57'0 0.1
2017-Jun-17 20:00N 20°31' W 086°57'1 0.6
2017-Jun-17 18:12N 20°32' W 086°58'1 1.1
2017-Jun-17 17:13N 20°31' W 086°57'0 0.1
2017-Jun-17 17:00N 20°31' W 086°57'3 1.5
2017-Jun-17 15:17N 20°33' W 086°59'3 3.5
2017-Jun-17 14:33N 20°31' W 086°57'0 0.6
2017-Jun-17 14:31N 20°31' W 086°57'0 0.0
2017-Jun-17 13:31N 20°31' W 086°57'0 0.0
2017-Jun-17 13:01N 20°31' W 086°57'0 0.3
2017-Jun-17 12:30N 20°31' W 086°57'0 0.0
2017-Jun-17 02:27N 20°31' W 086°57'0 0.0
2017-Jun-17 01:53N 20°31' W 086°57'2 1.3
2017-Jun-17 00:14N 20°32' W 086°58'2 8.8
2017-Jun-16 23:59N 20°31' W 086°57'0 0.8
2017-Jun-16 23:31N 20°31' W 086°57'1 1.2
2017-Jun-16 23:01N 20°30' W 086°57'3 5.8
2017-Jun-16 22:31N 20°33' W 086°59'3 2.7
2017-Jun-16 21:27N 20°30' W 086°59'1 1.3
2017-Jun-16 21:00N 20°30' W 086°59'2 0.6
2017-Jun-16 17:19N 20°33' W 086°59'3 7.5
2017-Jun-16 16:58N 20°31' W 086°57'3 1.9
2017-Jun-16 15:18N 20°33' W 086°59'3 5.9
2017-Jun-16 14:45N 20°31' W 086°57'314.3
2017-Jun-16 14:30N 20°33' W 086°59'3 2.2
2017-Jun-16 13:04N 20°30' W 086°59'116.4
2017-Jun-16 13:00N 20°30' W 086°59'1 1.5
2017-Jun-16 12:30N 20°29' W 086°58'0 0.3
2017-Jun-16 12:00N 20°29' W 086°59'0 0.0
2017-Jun-16 11:30N 20°29' W 086°59'2 0.3
2017-Jun-16 02:41N 20°31' W 086°57'314.3
2017-Jun-16 02:30N 20°33' W 086°59'1 0.7
2017-Jun-16 01:21N 20°33' W 086°59'3 5.6
2017-Jun-16 00:46N 20°31' W 086°57'3 1.7
2017-Jun-15 23:17N 20°33' W 086°59'3 9.5
2017-Jun-15 23:00N 20°31' W 086°57'3 6.2
2017-Jun-15 22:29N 20°33' W 086°59'1 0.6
2017-Jun-15 21:16N 20°33' W 086°59'3 9.9
2017-Jun-15 21:00N 20°31' W 086°57'0 0.1
2017-Jun-15 20:30N 20°31' W 086°57'0 0.2
2017-Jun-15 20:00N 20°31' W 086°57'4 7.3
2017-Jun-15 19:30N 20°34' W 086°59'2 1.7
2017-Jun-15 18:17N 20°32' W 086°58'2 3.5
2017-Jun-15 17:47N 20°31' W 086°57'3 1.8
2017-Jun-15 16:16N 20°33' W 086°59'3 5.5
2017-Jun-15 15:47N 20°31' W 086°57'3 1.9
2017-Jun-15 14:17N 20°33' W 086°59'3 3.6
2017-Jun-15 13:30N 20°31' W 086°57'0 0.0
2017-Jun-15 13:00N 20°31' W 086°57'0 0.0
2017-Jun-15 12:30N 20°31' W 086°57'0 0.0
2017-Jun-15 12:00N 20°31' W 086°57'0 0.0
2017-Jun-15 11:30N 20°31' W 086°57'0 0.0
2017-Jun-15 02:39N 20°31' W 086°57'0 0.4
2017-Jun-15 02:31N 20°31' W 086°57'0 0.1
2017-Jun-15 01:41N 20°31' W 086°57'315.5
2017-Jun-15 01:30N 20°32' W 086°59'0 0.2
2017-Jun-15 00:17N 20°33' W 086°59'3 6.4
2017-Jun-14 23:51N 20°31' W 086°57'3 8.3
2017-Jun-14 23:30N 20°33' W 086°59'2 1.3
2017-Jun-14 22:15N 20°32' W 086°58'1 2.2
2017-Jun-14 21:42N 20°31' W 086°57'1 0.8
2017-Jun-14 20:11N 20°32' W 086°58'1 2.7
2017-Jun-14 19:47N 20°31' W 086°57'0 0.2
2017-Jun-14 18:10N 20°31' W 086°57'0 0.9
2017-Jun-14 17:44N 20°31' W 086°57'3 1.9
2017-Jun-14 16:15N 20°33' W 086°59'311.3
2017-Jun-14 16:00N 20°31' W 086°57'4 7.4
2017-Jun-14 15:30N 20°33' W 086°60'4 2.1
2017-Jun-14 13:42N 20°31' W 086°57'0 0.1
2017-Jun-14 13:30N 20°31' W 086°57'0 0.0
2017-Jun-14 13:00N 20°31' W 086°57'0 0.3
2017-Jun-14 12:30N 20°31' W 086°57'0 0.3
2017-Jun-14 12:00N 20°31' W 086°57'0 0.0
2017-Jun-14 03:05N 20°31' W 086°57'0 0.6
2017-Jun-14 03:00N 20°31' W 086°57'3 5.4
2017-Jun-14 02:30N 20°33' W 086°59'  
Track history (hours):
 
Tides and Currents Weather Stations Pressure Air Temp Water Temp Dewpoint Dewpoint Depression Visibility Wind Speed Wind Dir Waves Ship Positions

Mexico V

Last reported at 2017-Jun-24 01:48 UTC. Time now 2017-Jun-24 03:38 UTC.
Position N 20°31' W 086°57'.

Length 40 m; draft 1.5 m.

Type: Ship. MMSI: 345110005.

Date/timePositionNaut miles runAvg speedWind from/ knotsBaromVisibWave heightAir tempDewpointWater temp
2017-Jun-24 01:48N 20°31' W 086°57'311.2
2017-Jun-24 01:30N 20°33' W 086°60'1 0.6
2017-Jun-24 00:16N 20°32' W 086°59'2 9.2
2017-Jun-24 00:00N 20°31' W 086°57'3 1.8
2017-Jun-23 22:20N 20°33' W 086°59'3 9.1
2017-Jun-23 22:00N 20°31' W 086°57'0 0.8
2017-Jun-23 21:31N 20°31' W 086°57'0 0.0
2017-Jun-23 21:00N 20°31' W 086°57'0 0.0
2017-Jun-23 20:30N 20°31' W 086°57'0 0.7
2017-Jun-23 20:00N 20°31' W 086°57'4 8.4
2017-Jun-23 19:30N 20°34' W 087°00'2 1.4
2017-Jun-23 18:16N 20°33' W 086°59'3 9.8
2017-Jun-23 18:00N 20°31' W 086°57'0 0.0
2017-Jun-23 17:30N 20°31' W 086°57'0 0.1
2017-Jun-23 17:00N 20°31' W 086°57'2 1.1
2017-Jun-23 15:13N 20°32' W 086°59'2 9.8
2017-Jun-23 15:00N 20°31' W 086°57'0 0.0
2017-Jun-23 14:00N 20°31' W 086°57'0 0.1
2017-Jun-23 13:30N 20°31' W 086°57'0 0.1
2017-Jun-23 13:00N 20°31' W 086°57'0 0.1
2017-Jun-23 12:30N 20°31' W 086°57'0 0.0
2017-Jun-23 02:27N 20°31' W 086°57'0 0.1
2017-Jun-23 02:00N 20°31' W 086°57'2 4.7
2017-Jun-23 01:30N 20°32' W 086°59'0 0.3
2017-Jun-23 00:20N 20°33' W 086°59'3 8.2
2017-Jun-23 00:01N 20°31' W 086°57'3 6.2
2017-Jun-22 23:30N 20°33' W 086°60'1 0.7
2017-Jun-22 22:16N 20°32' W 086°59'2 9.1
2017-Jun-22 22:01N 20°31' W 086°57'0 0.0
2017-Jun-22 21:30N 20°31' W 086°57'2 3.9
2017-Jun-22 21:00N 20°29' W 086°59'3 1.1
2017-Jun-22 18:16N 20°33' W 086°59'2 9.1
2017-Jun-22 18:00N 20°31' W 086°57'2 1.3
2017-Jun-22 16:18N 20°32' W 086°59'2 7.6
2017-Jun-22 16:00N 20°31' W 086°57'2 0.7
2017-Jun-22 13:06N 20°30' W 086°59'113.8
2017-Jun-22 13:00N 20°29' W 086°58'0 0.2
2017-Jun-22 12:30N 20°29' W 086°58'0 0.7
2017-Jun-22 12:00N 20°29' W 086°58'2 4.3
2017-Jun-22 11:30N 20°31' W 086°57'0 0.0
2017-Jun-22 01:39N 20°31' W 086°57'213.6
2017-Jun-22 01:30N 20°32' W 086°58'1 0.4
2017-Jun-22 00:14N 20°33' W 086°59'210.0
2017-Jun-22 00:00N 20°31' W 086°57'2 4.2
2017-Jun-21 23:30N 20°32' W 086°59'1 1.0
2017-Jun-21 22:18N 20°33' W 086°59'311.5
2017-Jun-21 22:00N 20°31' W 086°57'0 0.0
2017-Jun-21 21:30N 20°31' W 086°57'0 0.0
2017-Jun-21 21:00N 20°31' W 086°57'3 6.7
2017-Jun-21 20:30N 20°33' W 086°59'1 1.0
2017-Jun-21 19:15N 20°32' W 086°59'2 9.3
2017-Jun-21 19:00N 20°31' W 086°57'4 7.3
2017-Jun-21 18:30N 20°33' W 086°60'1 0.5
2017-Jun-21 17:21N 20°33' W 086°59'3 9.3
2017-Jun-21 17:00N 20°31' W 086°57'0 0.0
2017-Jun-21 16:30N 20°31' W 086°57'0 0.5
2017-Jun-21 16:00N 20°31' W 086°57'3 5.8
2017-Jun-21 15:30N 20°33' W 086°59'0 0.4
2017-Jun-21 14:17N 20°34' W 086°59'4 4.7
2017-Jun-21 13:30N 20°31' W 086°57'0 0.1
2017-Jun-21 13:00N 20°31' W 086°57'0 0.0
2017-Jun-21 12:30N 20°31' W 086°57'0 0.0
2017-Jun-21 12:00N 20°31' W 086°57'0 0.0
2017-Jun-21 01:42N 20°31' W 086°57'313.5
2017-Jun-21 01:30N 20°33' W 086°59'0 0.3
2017-Jun-21 00:16N 20°33' W 086°59'311.7
2017-Jun-21 00:00N 20°31' W 086°57'4 7.2
2017-Jun-20 23:30N 20°33' W 086°60'1 0.9
2017-Jun-20 22:16N 20°33' W 086°59'2 9.6
2017-Jun-20 22:00N 20°31' W 086°57'3 6.2
2017-Jun-20 21:30N 20°33' W 086°60'1 0.6
2017-Jun-20 20:14N 20°33' W 086°59'210.7
2017-Jun-20 20:00N 20°31' W 086°57'2 1.0
2017-Jun-20 18:14N 20°32' W 086°58'2 8.0
2017-Jun-20 18:00N 20°31' W 086°57'2 1.0
2017-Jun-20 16:10N 20°32' W 086°58'211.9
2017-Jun-20 16:00N 20°31' W 086°57'3 6.8
2017-Jun-20 15:30N 20°33' W 086°60'1 0.7
2017-Jun-20 14:15N 20°33' W 086°59'3 0.2
2017-Jun-20 02:44N 20°31' W 086°57'314.8
2017-Jun-20 02:30N 20°33' W 086°59'1 1.0
2017-Jun-20 01:15N 20°32' W 086°58'2 8.7
2017-Jun-20 01:00N 20°31' W 086°57'0 0.1
2017-Jun-20 00:30N 20°31' W 086°57'0 0.0
2017-Jun-20 00:00N 20°31' W 086°57'2 4.9
2017-Jun-19 23:30N 20°33' W 086°59'0 0.2
2017-Jun-19 22:16N 20°33' W 086°59'310.4
2017-Jun-19 22:01N 20°31' W 086°57'0 0.0
2017-Jun-19 21:31N 20°31' W 086°57'0 0.0
2017-Jun-19 21:01N 20°31' W 086°57'2 4.7
2017-Jun-19 20:30N 20°32' W 086°59'0 0.4
2017-Jun-19 19:14N 20°32' W 086°58'2 8.5
2017-Jun-19 19:00N 20°31' W 086°57'0 0.1
2017-Jun-19 18:30N 20°31' W 086°57'0 0.0
2017-Jun-19 18:00N 20°31' W 086°57'3 2.0
2017-Jun-19 16:17N 20°33' W 086°59'311.9
2017-Jun-19 16:01N 20°31' W 086°57'0 0.1
2017-Jun-19 15:31N 20°31' W 086°57'0 0.7
2017-Jun-19 15:00N 20°31' W 086°57'3 5.3
2017-Jun-19 14:30N 20°33' W 086°59'1 0.5
2017-Jun-19 13:20N 20°33' W 086°59'310.2
2017-Jun-19 13:01N 20°31' W 086°57'0 0.0
2017-Jun-19 12:30N 20°31' W 086°57'0 0.0
2017-Jun-19 12:01N 20°31' W 086°57'0 0.0
2017-Jun-19 02:43N 20°31' W 086°57'312.9
2017-Jun-19 02:31N 20°33' W 086°59'1 0.5
2017-Jun-19 01:22N 20°33' W 086°59'3 7.3
2017-Jun-19 00:56N 20°31' W 086°57'0 0.1
2017-Jun-19 00:30N 20°31' W 086°57'0 0.0
2017-Jun-19 00:00N 20°31' W 086°57'0 0.0
2017-Jun-18 23:30N 20°31' W 086°57'0 0.0
2017-Jun-18 23:00N 20°31' W 086°57'3 5.8
2017-Jun-18 22:30N 20°33' W 086°59'0 0.3
2017-Jun-18 21:19N 20°33' W 086°59'3 8.7
2017-Jun-18 21:00N 20°31' W 086°57'0 0.0
2017-Jun-18 20:30N 20°31' W 086°57'0 0.0
2017-Jun-18 20:00N 20°31' W 086°57'2 1.3
2017-Jun-18 18:15N 20°32' W 086°59'2 3.7
2017-Jun-18 17:39N 20°31' W 086°57'0 0.2
2017-Jun-18 17:30N 20°31' W 086°57'0 0.0
2017-Jun-18 17:00N 20°31' W 086°57'2 1.2
2017-Jun-18 15:17N 20°32' W 086°59'2 2.9
2017-Jun-18 14:34N 20°31' W 086°57'0 0.1
2017-Jun-18 14:00N 20°31' W 086°57'0 0.0
2017-Jun-18 13:29N 20°31' W 086°57'0 0.0
2017-Jun-18 13:00N 20°31' W 086°57'0 0.0
2017-Jun-18 12:30N 20°31' W 086°57'0 0.0
2017-Jun-18 12:00N 20°31' W 086°57'0 0.0
2017-Jun-18 02:25N 20°31' W 086°57'0 0.1
2017-Jun-18 01:46N 20°31' W 086°57'1 1.0
2017-Jun-18 00:16N 20°32' W 086°58'1 1.4
2017-Jun-17 23:12N 20°31' W 086°57'0 0.5
2017-Jun-17 22:58N 20°31' W 086°57'1 0.7
2017-Jun-17 21:12N 20°32' W 086°58'1 3.2
2017-Jun-17 20:46N 20°31' W 086°57'0 0.0
2017-Jun-17 20:30N 20°31' W 086°57'0 0.1
2017-Jun-17 20:00N 20°31' W 086°57'1 0.6
2017-Jun-17 18:12N 20°32' W 086°58'1 1.1
2017-Jun-17 17:13N 20°31' W 086°57'0 0.1
2017-Jun-17 17:00N 20°31' W 086°57'3 1.5
2017-Jun-17 15:17N 20°33' W 086°59'3 3.5
2017-Jun-17 14:33N 20°31' W 086°57'0 0.6
2017-Jun-17 14:31N 20°31' W 086°57'0 0.0
2017-Jun-17 13:31N 20°31' W 086°57'0 0.0
2017-Jun-17 13:01N 20°31' W 086°57'0 0.3
2017-Jun-17 12:30N 20°31' W 086°57'0 0.0
2017-Jun-17 02:27N 20°31' W 086°57'0 0.0
2017-Jun-17 01:53N 20°31' W 086°57'2 1.3
2017-Jun-17 00:14N 20°32' W 086°58'2 8.8
2017-Jun-16 23:59N 20°31' W 086°57'0 0.8
2017-Jun-16 23:31N 20°31' W 086°57'1 1.2
2017-Jun-16 23:01N 20°30' W 086°57'3 5.8
2017-Jun-16 22:31N 20°33' W 086°59'3 2.7
2017-Jun-16 21:27N 20°30' W 086°59'1 1.3
2017-Jun-16 21:00N 20°30' W 086°59'2 0.6
2017-Jun-16 17:19N 20°33' W 086°59'3 7.5
2017-Jun-16 16:58N 20°31' W 086°57'3 1.9
2017-Jun-16 15:18N 20°33' W 086°59'3 5.9
2017-Jun-16 14:45N 20°31' W 086°57'314.3
2017-Jun-16 14:30N 20°33' W 086°59'3 2.2
2017-Jun-16 13:04N 20°30' W 086°59'116.4
2017-Jun-16 13:00N 20°30' W 086°59'1 1.5
2017-Jun-16 12:30N 20°29' W 086°58'0 0.3
2017-Jun-16 12:00N 20°29' W 086°59'0 0.0
2017-Jun-16 11:30N 20°29' W 086°59'2 0.3
2017-Jun-16 02:41N 20°31' W 086°57'314.3
2017-Jun-16 02:30N 20°33' W 086°59'1 0.7
2017-Jun-16 01:21N 20°33' W 086°59'3 5.6
2017-Jun-16 00:46N 20°31' W 086°57'3 1.7
2017-Jun-15 23:17N 20°33' W 086°59'3 9.5
2017-Jun-15 23:00N 20°31' W 086°57'3 6.2
2017-Jun-15 22:29N 20°33' W 086°59'1 0.6
2017-Jun-15 21:16N 20°33' W 086°59'3 9.9
2017-Jun-15 21:00N 20°31' W 086°57'0 0.1
2017-Jun-15 20:30N 20°31' W 086°57'0 0.2
2017-Jun-15 20:00N 20°31' W 086°57'4 7.3
2017-Jun-15 19:30N 20°34' W 086°59'2 1.7
2017-Jun-15 18:17N 20°32' W 086°58'2 3.5
2017-Jun-15 17:47N 20°31' W 086°57'3 1.8
2017-Jun-15 16:16N 20°33' W 086°59'3 5.5
2017-Jun-15 15:47N 20°31' W 086°57'3 1.9
2017-Jun-15 14:17N 20°33' W 086°59'3 3.6
2017-Jun-15 13:30N 20°31' W 086°57'0 0.0
2017-Jun-15 13:00N 20°31' W 086°57'0 0.0
2017-Jun-15 12:30N 20°31' W 086°57'0 0.0
2017-Jun-15 12:00N 20°31' W 086°57'0 0.0
2017-Jun-15 11:30N 20°31' W 086°57'0 0.0
2017-Jun-15 02:39N 20°31' W 086°57'0 0.4
2017-Jun-15 02:31N 20°31' W 086°57'0 0.1
2017-Jun-15 01:41N 20°31' W 086°57'315.5
2017-Jun-15 01:30N 20°32' W 086°59'0 0.2
2017-Jun-15 00:17N 20°33' W 086°59'3 6.4
2017-Jun-14 23:51N 20°31' W 086°57'3 8.3
2017-Jun-14 23:30N 20°33' W 086°59'2 1.3
2017-Jun-14 22:15N 20°32' W 086°58'1 2.2
2017-Jun-14 21:42N 20°31' W 086°57'1 0.8
2017-Jun-14 20:11N 20°32' W 086°58'1 2.7
2017-Jun-14 19:47N 20°31' W 086°57'0 0.2
2017-Jun-14 18:10N 20°31' W 086°57'0 0.9
2017-Jun-14 17:44N 20°31' W 086°57'3 1.9
2017-Jun-14 16:15N 20°33' W 086°59'311.3
2017-Jun-14 16:00N 20°31' W 086°57'4 7.4
2017-Jun-14 15:30N 20°33' W 086°60'4 2.1
2017-Jun-14 13:42N 20°31' W 086°57'0 0.1
2017-Jun-14 13:30N 20°31' W 086°57'0 0.0
2017-Jun-14 13:00N 20°31' W 086°57'0 0.3
2017-Jun-14 12:30N 20°31' W 086°57'0 0.3
2017-Jun-14 12:00N 20°31' W 086°57'0 0.0
2017-Jun-14 03:05N 20°31' W 086°57'0 0.6
2017-Jun-14 03:00N 20°31' W 086°57'3 5.4
2017-Jun-14 02:30N 20°33' W 086°59'  

Dump ship's entire track history